• Join FlightAware (Why Join?)
  • Login
  • US Flag 
02:55PM EST


 

Airport Tracker/Info


-or-


 

Live Flight TrackerFlight Track Log ✈ N240JK ✈ 23-Jun-2013 ✈ KUES - KECG

Flight Track Log - Related Links

Times and Time Zones

All times are in EDT time to prevent confusion due to time zone crossing. See the N240JK flight status page for this flight to view local times or setup timezone preferences in your user account.

Time Position Orientation Groundspeed Altitude Reporting Facility
EDT Latitude Longitude Course Direction KTS MPH feet Rate Location/Type
08:22AM 43.0333 -88.2167 90° East 188 216 1,600  Level KMKE
08:23AM 43.0333 -88.1500 90° East 268 308 3,600 3,529 Climbing KMKE
08:24AM 42.9833 -88.0667 129° Southeast 278 320 7,600 3,763 Climbing KMKE
08:25AM 42.9697 -87.9672 101° East 291 335 11,000 3,277 Climbing Chicago Center
08:26AM 42.9753 -87.8417 86° East 328 377 14,100 3,049 Climbing Chicago Center
08:27AM 42.9756 -87.7083 90° East 348 400 17,200 2,732 Climbing Chicago Center
08:28AM 42.9783 -87.5678 88° East 367 422 19,700 2,341 Climbing Chicago Center
08:29AM 42.9797 -87.4186 89° East 388 447 22,000 2,262 Climbing Chicago Center
08:30AM 42.9658 -87.2583 97° East 408 470 24,300 2,244 Climbing Chicago Center
08:31AM 42.9511 -87.1036 97° East 413 475 26,600 1,317 Climbing Chicago Center
08:32AM 42.9383 -86.9414 96° East 426 490 27,000 197 Climbing Chicago Center
08:33AM 42.9225 -86.7675 97° East 460 529 27,000 393 Level Chicago Center
08:34AM 42.9083 -86.5922 96° East 467 537 27,800 1,122 Climbing Chicago Center
08:35AM 42.8986 -86.4194 94° East 462 532 29,300 1,610 Climbing Chicago Center
08:36AM 42.8411 -86.2403 114° Southeast 453 521 31,100 1,820 Climbing Chicago Center
08:37AM 42.7681 -86.1103 127° Southeast 441 507 33,000 1,902 Climbing Chicago Center
08:38AM 42.6939 -85.9806 128° Southeast 440 506 35,000 1,902 Climbing Chicago Center
08:39AM 42.6228 -85.8525 127° Southeast 432 497 36,900 1,820 Climbing Chicago Center
08:40AM 42.5525 -85.7264 127° Southeast 425 489 38,700 1,033 Climbing Chicago Center
08:41AM 42.4811 -85.6017 128° Southeast 421 484 39,000 146 Climbing Chicago Center
08:42AM 42.4117 -85.4742 126° Southeast 423 487 39,000  Level Chicago Center
08:43AM 42.3275 -85.3258 127° Southeast 417 480 39,000  Level Chicago Center
08:44AM 42.2575 -85.2031 128° Southeast 415 478 39,000  Level Chicago Center
08:45AM 42.1886 -85.0808 127° Southeast 411 473 39,000  Level Chicago Center
08:46AM 42.1192 -84.9611 128° Southeast 409 471 39,000  Level Chicago Center
08:47AM 42.0506 -84.8411 128° Southeast 406 467 39,000  Level Chicago Center
08:48AM 41.9811 -84.7211 128° Southeast 406 467 39,000  Level Chicago Center
08:49AM 41.9139 -84.6053 128° Southeast 409 471 39,000  Level Chicago Center
08:50AM 41.8428 -84.4831 128° Southeast 412 474 39,000  Level Chicago Center
08:51AM 41.7686 -84.3558 128° Southeast 412 474 39,000  Level Cleveland Center
08:52AM 41.6872 -84.2286 131° Southeast 412 474 39,000  Level Cleveland Center
08:53AM 41.6158 -84.1081 128° Southeast 412 474 39,000  Level Cleveland Center
08:54AM 41.5444 -83.9875 128° Southeast 417 480 39,000  Level Cleveland Center
08:55AM 41.4789 -83.8786 129° Southeast 411 473 39,000  Level Cleveland Center
08:56AM 41.4072 -83.7561 128° Southeast 411 473 39,000  Level Cleveland Center
08:57AM 41.3353 -83.6392 129° Southeast 411 473 39,000  Level Cleveland Center
08:58AM 41.2614 -83.5169 129° Southeast 416 479 39,000  Level Cleveland Center
08:59AM 41.1894 -83.4003 129° Southeast 416 479 39,000  Level Cleveland Center
09:00AM 41.1153 -83.2758 128° Southeast 416 479 39,000  Level Cleveland Center
09:02AM 40.9989 -83.0767 128° Southeast 415 478 39,000  Level Indianapolis Center
09:03AM 40.9133 -82.9381 129° Southeast 415 478 39,000  Level Indianapolis Center
09:04AM 40.8392 -82.8194 130° Southeast 416 479 39,000  Level Indianapolis Center
09:05AM 40.7658 -82.6997 129° Southeast 417 480 39,000  Level Indianapolis Center
09:06AM 40.6917 -82.5819 130° Southeast 416 479 39,000  Level Indianapolis Center
09:07AM 40.6175 -82.4631 129° Southeast 417 480 39,000  Level Indianapolis Center
09:08AM 40.5433 -82.3464 130° Southeast 415 478 39,000  Level Indianapolis Center
09:09AM 40.4689 -82.2269 129° Southeast 418 481 39,000  Level Indianapolis Center
09:10AM 40.3944 -82.1100 130° Southeast 417 480 39,000  Level Indianapolis Center
09:11AM 40.3183 -81.9925 130° Southeast 419 482 39,000  Level Indianapolis Center
09:12AM 40.2319 -81.8558 130° Southeast 417 480 39,000  Level Indianapolis Center
09:13AM 40.1592 -81.7397 129° Southeast 414 476 39,000  Level Indianapolis Center
09:14AM 40.0842 -81.6250 130° Southeast 411 473 39,000  Level Indianapolis Center
09:15AM 40.0108 -81.5086 129° Southeast 412 474 39,000  Level Indianapolis Center
09:16AM 39.9347 -81.3875 129° Southeast 412 474 39,000  Level Indianapolis Center
09:17AM 39.8611 -81.2742 130° Southeast 410 472 39,000  Level Indianapolis Center
09:18AM 39.7858 -81.1597 131° Southeast 415 478 39,000  Level Indianapolis Center
09:19AM 39.7108 -81.0464 131° Southeast 413 475 39,000  Level Indianapolis Center
09:20AM 39.6369 -80.9328 130° Southeast 412 474 39,000  Level Indianapolis Center
09:21AM 39.5611 -80.8197 131° Southeast 412 474 39,000 -49 Level Indianapolis Center
09:22AM 39.4856 -80.7047 130° Southeast 417 480 38,900 -537 Descending Indianapolis Center
09:23AM 39.3961 -80.5672 130° Southeast 415 478 37,900 -722 Descending Indianapolis Center
09:25AM 39.2900 -80.4108 131° Southeast 407 468 37,000 -351 Descending Washington Center
09:26AM 39.2153 -80.2986 131° Southeast 407 468 37,000  Level Washington Center
09:27AM 39.1403 -80.1869 131° Southeast 407 468 37,000  Level Washington Center
09:28AM 39.0656 -80.0725 130° Southeast 407 468 37,000  Level Washington Center
09:29AM 38.9803 -79.9550 133° Southeast 407 468 37,000  Level Washington Center
09:30AM 38.9050 -79.8439 131° Southeast 407 468 37,000  Level Washington Center
09:31AM 38.8294 -79.7356 132° Southeast 407 468 37,000  Level Washington Center
09:32AM 38.7519 -79.6219 131° Southeast 407 468 37,000  Level Washington Center
09:33AM 38.6867 -79.5228 130° Southeast 407 468 37,000  Level Washington Center
09:34AM 38.6089 -79.4097 131° Southeast 407 468 37,000  Level Washington Center
09:35AM 38.5311 -79.2994 132° Southeast 407 468 37,000  Level Washington Center
09:36AM 38.4572 -79.1869 130° Southeast 407 468 37,000 -836 Level Washington Center
09:37AM 38.3711 -79.0664 132° Southeast 413 475 35,300 -2,339 Descending Washington Center
09:38AM 38.2972 -78.9544 130° Southeast 413 475 32,400 -2,949 Descending Washington Center
09:39AM 38.2189 -78.8450 132° Southeast 413 475 29,500 -2,557 Descending Washington Center
09:40AM 38.1406 -78.7336 132° Southeast 413 475 27,200 -1,230 Descending Washington Center
09:41AM 38.0600 -78.6194 132° Southeast 419 482 27,000 -101 Descending Washington Center
09:42AM 37.9856 -78.5136 132° Southeast 428 493 27,000  Level Washington Center
09:43AM 37.9047 -78.4000 132° Southeast 428 493 27,000  Level Washington Center
09:44AM 37.8197 -78.2836 133° Southeast 434 499 27,000  Level Washington Center
09:45AM 37.7347 -78.1650 132° Southeast 440 506 27,000  Level Washington Center
09:46AM 37.6539 -78.0497 132° Southeast 445 512 27,000  Level Washington Center
09:47AM 37.5686 -77.9342 133° Southeast 445 512 27,000  Level Washington Center
09:48AM 37.4811 -77.8189 134° Southeast 445 512 27,000  Level Washington Center
09:49AM 37.3956 -77.7014 132° Southeast 445 512 27,000  Level Washington Center
09:50AM 37.3119 -77.5894 133° Southeast 450 518 27,000  Level Washington Center
09:51AM 37.2261 -77.4700 132° Southeast 450 518 27,000 -590 Level Washington Center
09:52AM 37.1322 -77.3425 133° Southeast 450 518 25,800 -1,190 Descending Washington Center
09:53AM 37.0503 -77.2261 131° Southeast 450 518 24,600 -1,846 Descending Washington Center
09:54AM 36.9642 -77.1125 133° Southeast 445 512 22,200 -2,377 Descending Washington Center
09:55AM 36.8986 -77.0308 135° Southeast 448 516 20,400 -2,376 Descending Washington Center
09:56AM 36.8225 -76.9256 132° Southeast 446 513 18,200 -1,927 Descending Washington Center
09:57AM 36.7486 -76.8258 133° Southeast 416 479 16,900 -661 Descending Washington Center
09:58AM 36.6764 -76.7314 134° Southeast 373 429 16,900 -803 Level Washington Center
09:59AM 36.6022 -76.6294 132° Southeast 353 406 15,200 -1,835 Descending Washington Center
10:00AM 36.5464 -76.5589 135° Southeast 317 365 13,200 -2,121 Descending Washington Center
10:01AM 36.4867 -76.4806 133° Southeast 305 351 11,100 -1,965 Descending Washington Center
10:01AM 36.4369 -76.4156 134° Southeast 297 342 9,500 -1,610 Descending Washington Center
10:02AM 36.4142 -76.3792 128° Southeast 293 337 8,900 -1,800 Descending Washington Center
10:02AM 36.3853 -76.3453 137° Southeast 265 305 7,700 -2,637 Descending Washington Center
10:03AM 36.3356 -76.2675 128° Southeast 274 315 4,900 -2,508 Descending Washington Center
10:05AM 36.3278 -76.1719 96° East 263 303 2,600 -1,623 Descending Washington Center
10:06AM 36.3261 -76.0947 92° East 206 237 1,600 -656 Descending Washington Center
10:07AM 36.2803 -76.0739 160° South 161 185 1,200 -393 Descending Washington Center
10:08AM 36.2572 -76.1072 229° Southwest 159 183 800 -275 Descending Washington Center
10:08AM 36.2569 -76.1406 269° West 155 178 700 -111 Descending Washington Center
10:10AM 36.2500 -76.1667 270° West  Level FlightAware Approximate
10:17AM 36.2606 -76.1746 270° West  Level Estimated
10:18AM 36.2606 -76.1746 270° West  Level Estimated
10:19AM 36.2606 -76.1746 270° West  Level Estimated
10:20AM 36.2606 -76.1746 270° West  Level Estimated
10:21AM 36.2606 -76.1746 270° West  Level Estimated
10:22AM 36.2606 -76.1746 270° West  Level Estimated
10:23AM 36.2606 -76.1746 270° West  Level Estimated
10:24AM 36.2606 -76.1746 270° West  Level Estimated
10:25AM 36.2606 -76.1746 270° West  Level Estimated